Time;durP1;ratioP1;P1;durP2;ratioP2;P2;SDS_P1;SDS_P2;PMS_P1;PMS_P2;Temp;Humidity;BMP_temperature;BMP_pressure;BME280_temperature;BME280_humidity;BME280_pressure;Samples;Min_cycle;Max_cycle;Signal;HPM_P1;HPM_P2
2022/05/14 00:01:04;;;;;;;19.35;4.45;;;;;;;12.57;100.00;102020.09;5073556;28;20437;-78
2022/05/14 00:03:31;;;;;;;23.27;4.18;;;;;;;12.54;100.00;102020.03;5073163;28;20115;-77
2022/05/14 00:06:01;;;;;;;21.25;4.57;;;;;;;12.53;100.00;102028.78;5072927;28;20081;-77
2022/05/14 00:08:28;;;;;;;23.58;4.88;;;;;;;12.61;100.00;102024.63;5073162;28;20086;-77
2022/05/14 00:13:38;;;;;;;21.70;4.78;;;;;;;12.56;100.00;102015.66;5073298;28;20101;-78
2022/05/14 00:16:05;;;;;;;24.20;4.70;;;;;;;12.58;100.00;102016.63;5071465;28;20486;-78
2022/05/14 00:18:31;;;;;;;23.85;4.47;;;;;;;12.51;100.00;102022.56;5072574;28;20388;-77
2022/05/14 00:20:57;;;;;;;24.65;6.65;;;;;;;12.46;100.00;102018.06;5073033;28;20024;-78
2022/05/14 00:23:22;;;;;;;31.02;5.65;;;;;;;12.43;100.00;102017.97;5072774;28;20027;-78
2022/05/14 00:25:47;;;;;;;31.20;5.90;;;;;;;12.41;100.00;102014.41;5072825;28;20031;-78
2022/05/14 00:28:13;;;;;;;20.55;5.90;;;;;;;12.32;100.00;102020.31;5072105;28;20492;-78
2022/05/14 00:30:39;;;;;;;23.25;5.35;;;;;;;12.25;100.00;102017.44;5072361;28;20029;-77
2022/05/14 00:33:06;;;;;;;24.30;4.85;;;;;;;12.35;100.00;102029.19;5072266;28;20064;-78
2022/05/14 00:35:32;;;;;;;22.35;5.15;;;;;;;12.36;100.00;102025.66;5071509;28;20020;-78
2022/05/14 00:37:57;;;;;;;25.13;4.88;;;;;;;12.30;100.00;102021.13;5073027;28;20032;-77
2022/05/14 00:40:27;;;;;;;21.77;5.43;;;;;;;12.30;100.00;102010.56;5072194;28;20032;-77
2022/05/14 00:42:52;;;;;;;33.20;5.75;;;;;;;12.28;100.00;102009.63;5071986;28;20056;-77
2022/05/14 00:45:18;;;;;;;30.90;5.63;;;;;;;12.28;100.00;102012.28;5071691;28;20107;-77
2022/05/14 00:47:46;;;;;;;26.40;6.30;;;;;;;12.36;100.00;102012.47;5072614;28;20082;-77
2022/05/14 00:50:24;;;;;;;29.38;5.38;;;;;;;12.42;100.00;102010.91;5070364;28;20530;-77
2022/05/14 00:52:53;;;;;;;25.45;5.93;;;;;;;12.41;100.00;102006.50;5071296;28;20426;-78
2022/05/14 00:55:19;;;;;;;32.20;6.72;;;;;;;12.35;100.00;102003.66;5072584;28;20086;-77
2022/05/14 00:57:46;;;;;;;28.08;5.90;;;;;;;12.40;100.00;102001.16;5071144;28;20032;-77
2022/05/14 01:00:21;;;;;;;30.50;6.63;;;;;;;12.38;100.00;102006.38;5072323;28;20032;-78
2022/05/14 01:02:46;;;;;;;23.48;5.50;;;;;;;12.41;100.00;102008.22;5071088;28;20056;-78
2022/05/14 01:05:13;;;;;;;32.10;5.00;;;;;;;12.39;100.00;102007.31;5071060;28;20416;-77
2022/05/14 01:07:40;;;;;;;30.70;6.00;;;;;;;12.39;100.00;102023.13;5073109;28;20071;-78
2022/05/14 01:10:09;;;;;;;30.10;5.93;;;;;;;12.37;100.00;102017.81;5071388;28;20055;-78
2022/05/14 01:12:35;;;;;;;36.85;7.05;;;;;;;12.29;100.00;102016.72;5070773;28;20451;-78
2022/05/14 01:15:23;;;;;;;31.45;6.82;;;;;;;12.34;100.00;102009.78;5072263;28;20095;-78
2022/05/14 01:17:48;;;;;;;38.60;6.72;;;;;;;12.35;100.00;102016.00;5068657;28;20149;-77
2022/05/14 01:20:16;;;;;;;38.65;6.50;;;;;;;12.31;100.00;102015.00;5071216;28;20503;-77
2022/05/14 01:23:04;;;;;;;29.33;6.32;;;;;;;12.34;100.00;102012.44;5077792;28;20032;-78
2022/05/14 01:28:34;;;;;;;28.95;6.57;;;;;;;12.23;100.00;102009.50;5073988;28;20055;-78
2022/05/14 01:31:01;;;;;;;28.83;5.90;;;;;;;12.23;100.00;102014.78;5091557;28;20044;-78
2022/05/14 01:33:27;;;;;;;31.40;7.22;;;;;;;12.26;100.00;102019.25;5075995;28;20523;-78
2022/05/14 01:35:54;;;;;;;27.90;6.10;;;;;;;12.20;100.00;102021.72;5075479;28;20032;-79
2022/05/14 01:38:21;;;;;;;37.67;7.53;;;;;;;12.16;100.00;102017.22;5075688;28;20029;-77
2022/05/14 01:40:47;;;;;;;26.20;6.00;;;;;;;12.23;100.00;102014.78;5075589;28;20529;-78
2022/05/14 01:43:12;;;;;;;30.02;7.28;;;;;;;12.20;100.00;102013.81;5075700;28;20028;-77
2022/05/14 01:45:38;;;;;;;33.25;7.43;;;;;;;12.17;100.00;102018.97;5075239;28;20028;-77
2022/05/14 01:48:04;;;;;;;36.80;6.68;;;;;;;12.18;100.00;102026.03;5075369;28;20468;-78
2022/05/14 01:50:29;;;;;;;31.23;5.90;;;;;;;12.11;100.00;102031.16;5075432;28;20107;-77
2022/05/14 01:52:55;;;;;;;24.73;5.95;;;;;;;12.16;100.00;102033.94;5075443;28;20028;-77
2022/05/14 01:55:20;;;;;;;33.72;7.32;;;;;;;12.22;100.00;102033.19;5074454;28;20028;-78
2022/05/14 01:57:46;;;;;;;24.30;5.57;;;;;;;12.12;100.00;102030.28;5073692;28;20495;-78
2022/05/14 02:00:13;;;;;;;34.78;6.10;;;;;;;12.11;100.00;102024.97;5074376;28;20032;-78
2022/05/14 02:02:39;;;;;;;27.88;6.03;;;;;;;12.13;100.00;102023.28;5075618;28;20032;-78
2022/05/14 02:05:05;;;;;;;31.65;8.27;;;;;;;12.12;100.00;102030.28;5074791;28;20035;-77
2022/05/14 02:07:31;;;;;;;28.35;6.43;;;;;;;12.08;100.00;102032.81;5073707;28;20491;-78
2022/05/14 02:09:56;;;;;;;30.80;6.40;;;;;;;12.01;100.00;102030.84;5073425;28;20445;-78
2022/05/14 02:12:21;;;;;;;31.10;6.82;;;;;;;12.02;100.00;102027.34;5073709;28;20031;-78
2022/05/14 02:14:47;;;;;;;28.02;7.28;;;;;;;11.98;100.00;102035.16;5073330;28;20490;-77
2022/05/14 02:17:13;;;;;;;35.80;6.63;;;;;;;11.97;100.00;102035.13;5090157;28;20151;-77
2022/05/14 02:19:38;;;;;;;35.80;6.68;;;;;;;11.96;100.00;102034.25;5074343;28;20519;-77
2022/05/14 02:22:05;;;;;;;27.45;7.82;;;;;;;11.96;100.00;102041.25;5075147;28;20060;-77
2022/05/14 02:24:33;;;;;;;40.08;7.80;;;;;;;11.89;100.00;102034.84;5074724;28;20111;-78
2022/05/14 02:26:59;;;;;;;35.08;8.32;;;;;;;11.90;100.00;102030.50;5074574;28;20103;-77
2022/05/14 02:29:24;;;;;;;31.73;8.27;;;;;;;11.87;100.00;102040.94;5072611;28;20130;-78
2022/05/14 02:31:50;;;;;;;26.42;7.40;;;;;;;11.81;100.00;102036.34;5075205;28;20078;-77
2022/05/14 02:34:16;;;;;;;31.45;8.13;;;;;;;11.79;100.00;102041.59;5073937;28;20028;-77
2022/05/14 02:36:41;;;;;;;35.00;8.57;;;;;;;11.78;100.00;102042.44;5073356;28;20165;-77
2022/05/14 02:39:06;;;;;;;31.90;8.13;;;;;;;11.73;100.00;102038.75;5073378;28;20553;-77
2022/05/14 02:41:32;;;;;;;37.10;8.38;;;;;;;11.74;100.00;102039.66;5074769;28;20035;-76
2022/05/14 02:43:57;;;;;;;47.15;9.13;;;;;;;11.76;100.00;102045.88;5073532;28;20034;-78
2022/05/14 02:46:22;;;;;;;38.95;9.27;;;;;;;11.77;100.00;102045.94;5072626;28;20024;-76
2022/05/14 02:48:48;;;;;;;30.20;9.20;;;;;;;11.75;100.00;102047.63;5072430;28;20476;-78
2022/05/14 02:51:13;;;;;;;46.75;9.98;;;;;;;11.69;100.00;102044.78;5078228;28;20051;-78
2022/05/14 02:53:39;;;;;;;28.40;9.85;;;;;;;11.63;100.00;102047.25;5074955;28;20522;-78
2022/05/14 02:56:04;;;;;;;28.48;8.23;;;;;;;11.61;100.00;102054.19;5072923;28;20445;-78
2022/05/14 03:01:14;;;;;;;30.80;9.82;;;;;;;11.55;100.00;102054.00;5074266;28;20047;-78
2022/05/14 03:03:39;;;;;;;37.75;9.38;;;;;;;11.50;100.00;102053.84;5072583;28;20020;-78
2022/05/14 03:06:05;;;;;;;40.50;8.85;;;;;;;11.50;100.00;102051.22;5073238;28;20417;-77
2022/05/14 03:08:30;;;;;;;33.20;8.75;;;;;;;11.43;100.00;102058.03;5073996;28;20029;-78
2022/05/14 03:10:56;;;;;;;35.20;10.75;;;;;;;11.40;100.00;102052.66;5073551;28;20036;-78
2022/05/14 03:13:22;;;;;;;30.30;10.20;;;;;;;11.39;100.00;102048.22;5072589;28;20706;-77
2022/05/14 03:15:48;;;;;;;36.45;9.98;;;;;;;11.35;100.00;102051.59;5072967;28;20016;-78
2022/05/14 03:18:13;;;;;;;32.33;9.93;;;;;;;11.38;100.00;102051.72;5072511;28;20046;-77
2022/05/14 03:20:39;;;;;;;33.80;9.85;;;;;;;11.39;100.00;102057.88;5074043;28;20034;-77
2022/05/14 03:23:04;;;;;;;40.17;9.68;;;;;;;11.36;100.00;102048.13;5074253;28;20032;-77
2022/05/14 03:25:31;;;;;;;40.60;11.00;;;;;;;11.36;100.00;102045.50;5073764;28;20035;-78
2022/05/14 03:27:56;;;;;;;36.22;9.88;;;;;;;11.35;100.00;102046.34;5073360;28;20410;-78
2022/05/14 03:30:22;;;;;;;33.15;9.68;;;;;;;11.34;100.00;102044.56;5072368;28;20016;-78
2022/05/14 03:32:47;;;;;;;33.78;9.15;;;;;;;11.34;100.00;102044.56;5072234;28;20028;-77
2022/05/14 03:35:12;;;;;;;32.25;9.68;;;;;;;11.30;100.00;102045.31;5073466;28;20030;-78
2022/05/14 03:37:37;;;;;;;28.25;10.18;;;;;;;11.30;100.00;102043.56;5073316;28;20020;-76
2022/05/14 03:40:05;;;;;;;37.60;10.00;;;;;;;11.32;100.00;102051.50;5072229;28;20490;-77
2022/05/14 03:42:31;;;;;;;31.95;9.38;;;;;;;11.35;100.00;102043.69;5055533;28;20036;-78
2022/05/14 03:44:57;;;;;;;30.48;9.35;;;;;;;11.34;100.00;102043.66;5073664;28;20028;-78
2022/05/14 03:47:22;;;;;;;34.20;9.02;;;;;;;11.36;100.00;102048.13;5072591;28;20043;-78
2022/05/14 03:49:48;;;;;;;30.00;9.00;;;;;;;11.38;100.00;102042.91;5072746;28;20464;-78
2022/05/14 03:52:14;;;;;;;27.08;8.45;;;;;;;11.35;100.00;102048.09;5073664;28;20383;-78
2022/05/14 03:54:39;;;;;;;32.55;8.15;;;;;;;11.32;100.00;102051.50;5073256;28;20103;-78
2022/05/14 03:57:08;;;;;;;35.25;8.75;;;;;;;11.33;100.00;102050.69;5073554;28;20016;-78
2022/05/14 03:59:33;;;;;;;32.50;7.78;;;;;;;11.37;100.00;102049.06;5074624;28;20062;-78
2022/05/14 04:01:59;;;;;;;36.92;11.27;;;;;;;11.35;100.00;102050.72;5070403;28;20028;-78
2022/05/14 04:04:25;;;;;;;20.75;8.55;;;;;;;11.32;100.00;102051.50;5073076;28;20488;-77
2022/05/14 04:06:51;;;;;;;35.05;10.30;;;;;;;11.33;100.00;102053.31;5054982;28;20026;-78
2022/05/14 04:09:16;;;;;;;32.33;9.27;;;;;;;11.26;100.00;102062.75;5072009;28;20036;-78
2022/05/14 04:11:42;;;;;;;33.90;9.93;;;;;;;11.32;100.00;102067.31;5072465;28;20146;-77
2022/05/14 04:14:08;;;;;;;34.15;10.73;;;;;;;11.25;100.00;102067.97;5072938;28;20107;-78
2022/05/14 04:16:33;;;;;;;36.97;11.48;;;;;;;11.27;100.00;102068.91;5073366;28;20020;-77
2022/05/14 04:18:59;;;;;;;34.20;9.40;;;;;;;11.23;100.00;102065.28;5071112;28;20021;-77
2022/05/14 04:21:24;;;;;;;26.80;9.77;;;;;;;11.27;100.00;102067.19;5072132;28;20048;-77
2022/05/14 04:23:50;;;;;;;23.35;8.80;;;;;;;11.25;100.00;102066.22;5071763;28;20425;-78
2022/05/14 04:26:15;;;;;;;29.02;9.02;;;;;;;11.27;100.00;102066.28;5073046;28;20040;-76
2022/05/14 04:28:40;;;;;;;30.20;8.77;;;;;;;11.26;100.00;102078.56;5051051;28;20053;-77
2022/05/14 04:31:06;;;;;;;26.83;8.95;;;;;;;11.26;100.00;102078.56;5068736;28;20417;-77
2022/05/14 04:33:31;;;;;;;34.17;9.55;;;;;;;11.32;100.00;102076.97;5071872;28;20051;-77
2022/05/14 04:35:56;;;;;;;29.98;9.80;;;;;;;11.36;100.00;102081.50;5070789;28;20387;-78
2022/05/14 04:38:22;;;;;;;29.75;9.30;;;;;;;11.37;100.00;102081.56;5071493;28;20078;-77
2022/05/14 04:40:47;;;;;;;31.58;8.93;;;;;;;11.39;100.00;102078.97;5071400;28;20056;-77
2022/05/14 04:43:13;;;;;;;38.85;9.27;;;;;;;11.40;100.00;102073.75;5067728;28;20487;-78
2022/05/14 04:45:40;;;;;;;29.13;7.93;;;;;;;11.43;100.00;102076.47;5072308;28;20103;-77
2022/05/14 04:48:06;;;;;;;30.98;8.10;;;;;;;11.49;100.00;102081.06;5071195;28;20028;-77
2022/05/14 04:50:32;;;;;;;24.13;7.72;;;;;;;11.60;100.00;102084.06;5071283;28;20047;-77
2022/05/14 04:52:57;;;;;;;30.00;7.30;;;;;;;11.66;100.00;102084.25;5072268;28;20486;-79
2022/05/14 04:55:23;;;;;;;28.50;8.77;;;;;;;11.76;100.00;102091.63;5070427;28;20031;-78
2022/05/14 04:57:49;;;;;;;26.10;7.57;;;;;;;11.78;100.00;102087.25;5056783;28;20078;-77
2022/05/14 05:00:16;;;;;;;25.15;6.57;;;;;;;11.87;100.00;102083.13;5075238;28;20123;-76
2022/05/14 05:05:27;;;;;;;41.60;8.68;;;;;;;11.97;100.00;102086.13;5076140;28;20415;-77
2022/05/14 05:07:53;;;;;;;25.38;6.25;;;;;;;12.04;100.00;102087.22;5076325;28;20123;-78
2022/05/14 05:10:18;;;;;;;25.60;5.72;;;;;;;12.16;100.00;102077.91;5076060;28;20505;-77
2022/05/14 05:12:44;;;;;;;31.08;6.22;;;;;;;12.24;100.00;102085.19;5075854;28;20429;-78
2022/05/14 05:15:10;;;;;;;22.08;5.70;;;;;;;12.24;100.00;102087.81;5072707;28;20021;-77
2022/05/14 05:17:35;;;;;;;21.90;5.85;;;;;;;12.26;100.00;102093.13;5074902;28;20369;-78
2022/05/14 05:20:01;;;;;;;24.60;6.15;;;;;;;12.27;100.00;102094.94;5075710;28;20068;-78
2022/05/14 05:22:26;;;;;;;20.75;5.95;;;;;;;12.34;100.00;102096.91;5081469;28;20114;-78
2022/05/14 05:24:51;;;;;;;21.65;5.68;;;;;;;12.44;100.00;102095.44;5074140;28;20078;-78
2022/05/14 05:27:17;;;;;;;20.60;5.72;;;;;;;12.44;100.00;102091.06;5075527;28;20035;-78
2022/05/14 05:29:43;;;;;;;25.33;5.28;;;;;;;12.49;100.00;102099.09;5076193;28;20056;-78
2022/05/14 05:32:08;;;;;;;27.00;5.30;;;;;;;12.49;100.00;102104.38;5073994;28;20541;-78
2022/05/14 05:34:34;;;;;;;27.02;5.57;;;;;;;12.53;100.00;102114.16;5074275;28;20016;-77
2022/05/14 05:36:59;;;;;;;19.02;4.93;;;;;;;12.62;100.00;102109.16;5056664;28;20036;-77
2022/05/14 05:39:24;;;;;;;18.85;5.80;;;;;;;12.64;100.00;102107.47;5090178;28;20086;-78
2022/05/14 05:41:50;;;;;;;37.72;6.13;;;;;;;12.66;100.00;102107.50;5074368;28;20090;-78
2022/05/14 05:44:15;;;;;;;33.35;6.53;;;;;;;12.69;100.00;102109.34;5075977;28;20082;-78
2022/05/14 05:46:41;;;;;;;21.27;5.38;;;;;;;12.69;100.00;102123.44;5074306;28;20028;-78
2022/05/14 05:49:07;;;;;;;24.77;6.03;;;;;;;12.70;100.00;102122.59;5075273;28;20040;-77
2022/05/14 05:51:33;;;;;;;24.55;5.82;;;;;;;12.74;100.00;102121.81;5074121;28;20475;-78
2022/05/14 05:56:56;;;;;;;23.92;5.63;;;;;;;12.77;100.00;102118.38;5075619;28;20482;-78
2022/05/14 05:59:21;;;;;;;21.15;6.43;;;;;;;12.84;100.00;102124.72;5074623;28;20032;-78
2022/05/14 06:01:47;;;;;;;24.52;5.93;;;;;;;12.86;100.00;102123.91;5074825;28;20032;-77
2022/05/14 06:04:13;;;;;;;22.90;5.72;;;;;;;12.95;100.00;102131.19;5074886;28;20055;-78
2022/05/14 06:06:42;;;;;;;23.98;6.28;;;;;;;12.98;100.00;102128.63;5074300;28;20077;-77
2022/05/14 06:09:10;;;;;;;34.85;7.00;;;;;;;13.09;100.00;102127.19;5073422;28;20107;-77
2022/05/14 06:11:36;;;;;;;27.40;5.50;;;;;;;13.24;100.00;102124.06;5073584;28;20073;-77
2022/05/14 06:14:01;;;;;;;32.53;5.80;;;;;;;13.22;100.00;102127.50;5076074;28;20463;-78
2022/05/14 06:16:27;;;;;;;22.17;5.15;;;;;;;13.24;100.00;102131.06;5073761;28;20601;-76
2022/05/14 06:18:52;;;;;;;19.50;4.85;;;;;;;13.32;100.00;102145.38;5074956;28;20111;-78
2022/05/14 06:21:18;;;;;;;22.38;5.78;;;;;;;13.33;100.00;102141.88;5074633;28;20361;-78
2022/05/14 06:23:43;;;;;;;23.92;5.40;;;;;;;13.35;100.00;102148.13;5072312;28;20033;-77
2022/05/14 06:26:09;;;;;;;11.68;4.72;;;;;;;13.37;100.00;102145.56;5073122;28;20016;-77
2022/05/14 06:28:35;;;;;;;19.83;5.72;;;;;;;13.43;100.00;102138.69;5073812;28;20057;-77
2022/05/14 06:31:00;;;;;;;21.98;5.72;;;;;;;13.44;100.00;102139.56;5073090;28;20469;-78
2022/05/14 06:33:26;;;;;;;22.25;5.72;;;;;;;13.52;100.00;102145.94;5073493;28;20028;-78
2022/05/14 06:35:52;;;;;;;27.08;6.25;;;;;;;13.60;100.00;102152.31;5074083;28;20115;-78
2022/05/14 06:38:18;;;;;;;26.52;6.25;;;;;;;13.71;100.00;102152.56;5073028;28;20032;-77
2022/05/14 06:40:44;;;;;;;18.77;5.07;;;;;;;13.82;100.00;102148.47;5073733;28;20034;-78
2022/05/14 06:43:11;;;;;;;23.63;6.65;;;;;;;13.98;100.00;102156.75;5071725;28;20048;-78
2022/05/14 06:45:36;;;;;;;21.88;5.28;;;;;;;14.05;100.00;102148.09;5054098;28;20028;-75
2022/05/14 06:48:02;;;;;;;19.33;5.50;;;;;;;14.06;100.00;102155.19;5072196;28;20525;-79
2022/05/14 06:50:31;;;;;;;22.63;5.10;;;;;;;14.14;100.00;102150.94;5073269;28;20036;-80
2022/05/14 06:53:01;;;;;;;17.98;5.57;;;;;;;14.19;100.00;102147.50;5074816;28;20468;-79
2022/05/14 06:55:34;;;;;;;24.00;6.18;;;;;;;14.11;100.00;102156.19;5072993;28;20028;-79
2022/05/14 06:58:00;;;;;;;15.45;5.00;;;;;;;14.19;100.00;102163.41;5072364;28;20040;-79
2022/05/14 07:00:25;;;;;;;23.38;5.82;;;;;;;14.22;100.00;102163.50;5073544;28;20024;-79
2022/05/14 07:02:52;;;;;;;24.35;5.18;;;;;;;14.31;100.00;102163.66;5072519;28;20024;-79
2022/05/14 07:08:02;;;;;;;24.58;5.85;;;;;;;14.46;100.00;102156.09;5071728;28;20086;-78
2022/05/14 07:10:28;;;;;;;20.55;5.55;;;;;;;14.50;100.00;102165.88;5074238;28;20020;-79
2022/05/14 07:12:55;;;;;;;24.33;6.03;;;;;;;14.56;100.00;102175.72;5069835;28;20031;-79
2022/05/14 07:15:20;;;;;;;16.77;5.28;;;;;;;14.63;100.00;102171.47;5071693;28;20495;-80
2022/05/14 07:17:45;;;;;;;24.98;5.55;;;;;;;14.74;100.00;102164.63;5068652;28;20028;-79
2022/05/14 07:20:11;;;;;;;18.10;5.30;;;;;;;14.92;100.00;102168.50;5071977;28;20031;-79
2022/05/14 07:22:36;;;;;;;16.65;4.88;;;;;;;14.96;100.00;102178.31;5072297;28;20032;-79
2022/05/14 07:25:03;;;;;;;21.90;5.60;;;;;;;14.96;100.00;102178.31;5072936;28;20028;-78
2022/05/14 07:27:28;;;;;;;20.05;5.10;;;;;;;15.04;100.00;102178.47;5070837;28;20064;-78
2022/05/14 07:29:53;;;;;;;22.98;5.88;;;;;;;15.17;100.00;102175.19;5070525;28;20428;-78
2022/05/14 07:32:20;;;;;;;25.10;6.43;;;;;;;15.24;100.00;102181.50;5073117;28;20471;-79
2022/05/14 07:34:46;;;;;;;15.30;4.78;;;;;;;15.24;100.00;102176.22;5072191;28;20030;-78
2022/05/14 07:37:22;;;;;;;18.15;5.30;;;;;;;15.23;100.00;102179.72;5071344;28;20025;-79
2022/05/14 07:39:55;;;;;;;24.17;4.82;;;;;;;15.17;100.00;102175.19;5062938;28;20031;-74
2022/05/14 07:42:38;;;;;;;24.45;5.57;;;;;;;15.33;100.00;102177.28;5071959;28;20430;-79
2022/05/14 07:45:06;;;;;;;22.48;4.72;;;;;;;15.39;100.00;102175.59;5070429;28;20111;-80
2022/05/14 07:47:33;;;;;;;15.05;4.72;;;;;;;15.46;100.00;102178.41;5072628;28;20029;-80
2022/05/14 07:50:00;;;;;;;22.92;5.70;;;;;;;15.54;100.00;102182.94;5072771;28;20029;-79
2022/05/14 07:52:26;;;;;;;18.02;5.05;;;;;;;15.54;100.00;102174.97;5081999;28;20020;-81
2022/05/14 07:54:52;;;;;;;20.05;4.57;;;;;;;15.66;100.00;102185.81;5072340;28;20050;-81
2022/05/14 07:57:18;;;;;;;22.70;4.90;;;;;;;15.78;100.00;102180.69;5072434;28;20036;-81
2022/05/14 07:59:44;;;;;;;18.73;4.35;;;;;;;15.90;100.00;102182.69;5072592;28;20028;-82
2022/05/14 08:02:21;;;;;;;23.95;4.70;;;;;;;16.07;100.00;102193.56;5073595;28;20047;-83
2022/05/14 08:04:47;;;;;;;22.23;4.50;;;;;;;15.99;100.00;102189.91;5071853;28;20024;-79
2022/05/14 08:07:12;;;;;;;18.25;4.80;;;;;;;16.20;100.00;102197.31;5072527;28;20050;-78
2022/05/14 08:09:37;;;;;;;19.75;4.78;;;;;;;16.27;97.55;102195.66;5074566;28;20468;-78
2022/05/14 08:12:03;;;;;;;19.88;4.40;;;;;;;16.34;99.26;102197.50;5071923;28;20415;-79
2022/05/14 08:14:29;;;;;;;22.13;4.50;;;;;;;16.47;96.62;102194.16;5071167;28;20117;-78
2022/05/14 08:16:55;;;;;;;21.25;5.05;;;;;;;16.55;91.15;102180.06;5071805;28;20028;-79
2022/05/14 08:19:20;;;;;;;18.60;4.40;;;;;;;16.64;92.65;102181.13;5073715;28;20499;-79
2022/05/14 08:24:40;;;;;;;21.30;4.75;;;;;;;16.90;90.00;102185.91;5017410;28;20488;-79
2022/05/14 08:27:09;;;;;;;20.27;4.38;;;;;;;16.95;85.33;102177.94;5054731;28;20017;-78
2022/05/14 08:29:35;;;;;;;17.48;4.35;;;;;;;16.98;83.37;102177.97;5072372;28;20021;-79
2022/05/14 08:32:01;;;;;;;17.90;3.80;;;;;;;17.01;81.89;102175.34;5069855;28;20027;-79
2022/05/14 08:34:27;;;;;;;19.63;5.28;;;;;;;17.03;80.67;102178.94;5072907;28;20531;-78
2022/05/14 08:36:52;;;;;;;20.00;4.15;;;;;;;17.09;80.47;102179.00;5070189;28;20032;-79
2022/05/14 08:39:18;;;;;;;23.25;4.03;;;;;;;17.21;81.98;102180.00;5070143;28;20490;-80
2022/05/14 08:41:48;;;;;;;21.25;4.05;;;;;;;17.25;81.90;102185.38;5070875;28;20537;-80
2022/05/14 08:44:17;;;;;;;17.38;4.05;;;;;;;17.26;80.84;102187.16;5072338;28;20040;-80
2022/05/14 08:46:44;;;;;;;19.88;3.90;;;;;;;17.44;83.19;102197.09;5071508;28;20024;-79
2022/05/14 08:49:21;;;;;;;18.05;4.50;;;;;;;17.39;76.25;102188.19;5069478;28;20124;-80
2022/05/14 08:51:50;;;;;;;23.02;4.40;;;;;;;17.55;80.52;102180.34;5072817;28;20499;-79
2022/05/14 08:54:16;;;;;;;23.92;4.72;;;;;;;17.58;78.60;102181.28;5072357;28;20381;-77
2022/05/14 08:56:47;;;;;;;14.85;3.92;;;;;;;17.78;81.39;102186.72;5071730;28;20028;-80
2022/05/14 08:59:26;;;;;;;20.90;4.32;;;;;;;18.03;81.04;102186.97;5069745;28;20029;-78
2022/05/14 09:02:00;;;;;;;21.50;4.30;;;;;;;18.03;78.14;102181.66;5072713;28;20490;-79
2022/05/14 09:04:26;;;;;;;20.88;5.72;;;;;;;18.10;75.95;102186.13;5072295;28;20044;-79
2022/05/14 09:06:51;;;;;;;19.50;4.18;;;;;;;18.34;77.94;102180.06;5072916;28;20106;-79
2022/05/14 09:09:17;;;;;;;22.67;3.97;;;;;;;18.36;74.87;102180.06;5070317;28;20431;-80
2022/05/14 09:11:54;;;;;;;18.92;4.35;;;;;;;18.53;72.28;102177.50;5068120;28;20078;-80
2022/05/14 09:14:38;;;;;;;18.58;3.90;;;;;;;18.69;72.54;102183.78;5069952;28;20480;-78
2022/05/14 09:17:12;;;;;;;19.40;4.50;;;;;;;18.35;68.88;102189.84;5071983;28;20021;-79
2022/05/14 09:19:40;;;;;;;15.52;3.88;;;;;;;18.12;69.86;102188.81;5070552;28;20032;-79
2022/05/14 09:22:23;;;;;;;24.52;4.38;;;;;;;17.98;71.14;102183.38;5070809;28;20035;-78
2022/05/14 09:24:54;;;;;;;23.67;4.47;;;;;;;17.92;71.12;102188.66;5068867;28;20097;-80
2022/05/14 09:27:27;;;;;;;20.75;3.92;;;;;;;18.02;71.50;102193.19;5071331;28;20029;-79
2022/05/14 09:29:55;;;;;;;19.00;4.18;;;;;;;18.02;71.33;102194.06;5068909;28;20039;-79
2022/05/14 09:32:20;;;;;;;20.90;4.55;;;;;;;18.01;74.11;102196.72;5072327;28;20480;-78
2022/05/14 09:34:47;;;;;;;15.00;3.90;;;;;;;18.08;73.30;102195.91;5070893;28;20043;-78
2022/05/14 09:37:18;;;;;;;17.77;4.05;;;;;;;18.15;70.82;102189.72;5070600;28;20287;-77
2022/05/14 09:39:59;;;;;;;19.38;4.05;;;;;;;18.32;70.47;102187.16;5068744;28;20036;-78
2022/05/14 09:42:35;;;;;;;21.48;4.95;;;;;;;18.42;69.03;102188.13;5071152;28;20031;-78
2022/05/14 09:45:01;;;;;;;22.77;4.60;;;;;;;18.50;72.54;102204.13;5071097;28;20035;-77
2022/05/14 09:47:33;;;;;;;28.80;5.00;;;;;;;18.69;71.84;102192.69;5073003;28;20044;-77
2022/05/14 09:50:07;;;;;;;13.50;3.60;;;;;;;19.07;72.20;102190.19;5075437;28;20029;-78
2022/05/14 09:52:35;;;;;;;16.63;4.10;;;;;;;19.16;69.70;102195.53;5062334;28;20029;-79
2022/05/14 09:55:10;;;;;;;22.48;4.88;;;;;;;19.34;68.14;102189.34;5075281;28;20025;-81
2022/05/14 09:57:43;;;;;;;17.52;4.30;;;;;;;19.47;65.38;102191.16;5074441;28;20127;-79
2022/05/14 10:00:31;;;;;;;19.87;5.23;;;;;;;19.64;66.46;102192.94;5073932;28;20063;-79
2022/05/14 10:03:01;;;;;;;21.13;4.72;;;;;;;19.75;65.44;102185.84;5069968;28;20028;-78
2022/05/14 10:05:35;;;;;;;22.42;4.45;;;;;;;20.02;67.29;102192.97;5080306;28;20040;-80
2022/05/14 10:08:10;;;;;;;20.98;5.15;;;;;;;20.27;65.78;102192.91;5073561;28;20020;-79
2022/05/14 10:11:03;;;;;;;20.23;4.57;;;;;;;20.34;65.17;102193.81;5078354;28;20467;-78
2022/05/14 10:13:46;;;;;;;19.73;3.92;;;;;;;20.26;63.66;102187.59;5072774;28;20434;-78
2022/05/14 10:16:23;;;;;;;23.20;4.83;;;;;;;20.05;68.24;102189.41;5072479;28;20031;-78
2022/05/14 10:18:51;;;;;;;22.70;5.00;;;;;;;20.12;63.35;102182.28;5072928;28;20028;-78
2022/05/14 10:21:49;;;;;;;17.90;4.55;;;;;;;19.87;62.72;102188.53;5072730;28;20123;-78
2022/05/14 10:27:33;;;;;;;18.20;5.18;;;;;;;19.54;63.45;102187.59;5073473;28;20035;-78
2022/05/14 10:30:24;;;;;;;18.35;3.47;;;;;;;19.61;60.30;102179.59;5041843;28;20047;-78
2022/05/14 10:32:55;;;;;;;14.38;3.78;;;;;;;19.85;59.58;102187.63;5071215;28;20063;-78
2022/05/14 10:35:27;;;;;;;14.63;3.75;;;;;;;19.98;63.75;102185.84;5072872;28;20033;-78
2022/05/14 10:38:06;;;;;;;17.40;3.38;;;;;;;20.17;60.72;102186.72;5071973;28;20085;-78
2022/05/14 10:40:53;;;;;;;19.95;4.38;;;;;;;20.16;63.01;102184.94;5073315;28;20028;-78
2022/05/14 10:43:41;;;;;;;24.50;5.35;;;;;;;20.02;61.16;102184.97;5074388;28;20107;-78
2022/05/14 10:46:10;;;;;;;23.80;4.10;;;;;;;20.06;63.22;102191.16;5070336;28;20035;-79
2022/05/14 10:48:42;;;;;;;20.20;4.90;;;;;;;20.39;65.24;102205.38;5073962;28;20028;-79
2022/05/14 10:51:11;;;;;;;18.40;4.05;;;;;;;20.44;61.23;102197.34;5077435;28;20044;-76
2022/05/14 10:53:47;;;;;;;17.90;4.30;;;;;;;20.11;62.24;102200.06;5073043;28;20031;-76
2022/05/14 10:56:22;;;;;;;20.67;4.47;;;;;;;19.93;62.54;102195.66;5072883;28;20082;-78
2022/05/14 10:58:58;;;;;;;16.52;4.07;;;;;;;19.68;64.30;102208.97;5071037;28;20098;-76
2022/05/14 11:01:42;;;;;;;12.80;3.78;;;;;;;19.59;65.13;102205.38;5074684;28;20028;-80
2022/05/14 11:04:21;;;;;;;19.75;4.70;;;;;;;20.07;64.30;102200.09;5072577;28;20086;-78
2022/05/14 11:07:14;;;;;;;18.13;4.93;;;;;;;20.28;61.94;102199.16;5074913;28;20028;-79
2022/05/14 11:09:44;;;;;;;20.73;4.88;;;;;;;20.42;63.61;102200.00;5074991;28;20077;-77
2022/05/14 11:12:18;;;;;;;22.30;5.03;;;;;;;20.00;65.46;102208.09;5073213;28;20029;-80
2022/05/14 11:14:53;;;;;;;18.88;5.13;;;;;;;19.82;66.53;102214.34;5087498;28;20036;-78
2022/05/14 11:17:30;;;;;;;19.55;4.38;;;;;;;19.98;71.04;102214.34;5085767;28;20033;-79
2022/05/14 11:20:01;;;;;;;19.85;5.72;;;;;;;20.36;68.87;102216.97;5074249;28;20527;-78
2022/05/14 11:22:32;;;;;;;18.20;5.70;;;;;;;20.78;67.94;102219.56;5069246;28;20155;-80
2022/05/14 11:25:09;;;;;;;15.13;4.13;;;;;;;21.00;65.61;102214.97;5070592;28;20492;-80
2022/05/14 11:27:38;;;;;;;17.10;5.20;;;;;;;21.25;64.70;102219.31;5073967;28;20040;-79
2022/05/14 11:30:08;;;;;;;16.23;5.05;;;;;;;21.69;63.15;102204.72;5071096;28;20116;-82
2022/05/14 11:32:53;;;;;;;22.45;5.57;;;;;;;21.98;61.12;102209.84;5070774;28;20469;-82
2022/05/14 11:35:20;;;;;;;24.52;6.28;;;;;;;22.08;61.10;102207.97;5059208;28;20029;-80
2022/05/14 11:37:51;;;;;;;20.83;5.53;;;;;;;21.98;63.43;102217.03;5069962;28;20024;-77
2022/05/14 11:40:20;;;;;;;20.75;5.78;;;;;;;21.75;62.10;102215.41;5072462;28;20476;-81